Gering, NE (69341)

7:57 PM MST on December 22, 2014 (GMT -0700)
RAWS SCOTTS BLUFF NE US | Change Station
CLOSE
Current Station
Personal Weather Station
Location: Gering, NE
Elevation: 4224 ft
Nearby Weather Stations
Active Advisory: High Wind Warning

Elev 4224 ft 41.83 °N, 103.71 °W | Updated 23 minutes ago

Clear
Clear
32 °F
Feels Like 18 °F
N
30
Wind Variable Wind from West
Gusts 43.0 mph

Today
High -- | Low -- °F
--% Chance of Precip.
Yesterday
High -- | Low -- °F
Precip. -- in
7:19 AM 4:27 PM
New Moon, 2% visible
Pressure 29.77 in
Visibility 10.0 miles
Clouds Clear
Windchill 18 °F
Dew Point 23 °F
Humidity 68%
Rainfall 0.00 in
Snow Depth Not available.
UV 0 out of 12
Pollen .10 out of 12
Air Quality Not available.
Flu Activity Not available.
METAR KBFF 230153Z AUTO 30019KT 10SM CLR M01/M05 A2971 RMK AO2 PK WND 30026/0105 SLP081 T10061050

More Conditions Fewer Conditions

Pressure 29.77 in
Visibility 10.0 miles
Clouds Clear
Windchill 18 °F
Dew Point 23 °F
Humidity 68%
Rainfall 0.00 in
Snow Depth Not available.
UV 0 out of 12
Pollen .10 out of 12
Air Quality Not available.
Flu Activity Not available.
METAR KBFF 230153Z AUTO 30019KT 10SM CLR M01/M05 A2971 RMK AO2 PK WND 30026/0105 SLP081 T10061050

More Conditions Fewer Conditions

10-Day Weather Forecast

Almanac

Astronomy

Dec. 22, 2014 Rise Set
Actual Time
Civil Twilight
Nautical Twilight
Astronomical Twilight
Moon
Length of Visible Light
Length of Day
Tomorrow will be .
, % of the Moon is Illuminated

Today's Extremes

State Highs State Lows

Community

WunderPhotos

Upload Photos

1,779,762 photos uploaded!

WunderBlogs® & News

Nearby

Air Quality

  Air Quality AQ Index Pollutant
Not available.

Snow Depth

Station Depth Elevation

Earthquake Activity

City Distance Mag. Time & Date
Minimum magnitude displayed is 2.5.

Coastal Water Temperatures

Place Temperature

Nearby Weather Stations